sensor_id;sensor_type;location;lat;lon;timestamp;pressure;altitude;pressure_sealevel;temperature;humidity
65131;BME280;51709;54.912;8.316;2024-02-26T00:00:43;100360.53;;;5.68;90.39
65131;BME280;51709;54.912;8.316;2024-02-26T00:06:04;100365.50;;;5.63;90.69
65131;BME280;51709;54.912;8.316;2024-02-26T00:11:24;100369.00;;;5.54;90.76
65131;BME280;51709;54.912;8.316;2024-02-26T00:16:45;100375.94;;;5.47;90.59
65131;BME280;51709;54.912;8.316;2024-02-26T00:22:06;100377.63;;;5.48;90.43
65131;BME280;51709;54.912;8.316;2024-02-26T00:27:27;100374.22;;;5.46;90.49
65131;BME280;51709;54.912;8.316;2024-02-26T00:32:47;100379.91;;;5.43;90.74
65131;BME280;51709;54.912;8.316;2024-02-26T00:38:08;100389.22;;;5.39;90.59
65131;BME280;51709;54.912;8.316;2024-02-26T00:43:28;100393.47;;;5.31;90.59
65131;BME280;51709;54.912;8.316;2024-02-26T00:48:49;100396.69;;;5.25;90.66
65131;BME280;51709;54.912;8.316;2024-02-26T00:54:10;100404.47;;;5.19;90.76
65131;BME280;51709;54.912;8.316;2024-02-26T00:59:30;100403.88;;;5.15;90.75
65131;BME280;51709;54.912;8.316;2024-02-26T01:04:51;100416.47;;;5.15;90.74
65131;BME280;51709;54.912;8.316;2024-02-26T01:10:12;100418.34;;;5.14;90.71
65131;BME280;51709;54.912;8.316;2024-02-26T01:15:32;100419.63;;;5.20;90.85
65131;BME280;51709;54.912;8.316;2024-02-26T01:20:53;100415.53;;;5.25;90.73
65131;BME280;51709;54.912;8.316;2024-02-26T01:26:15;100420.09;;;5.34;90.47
65131;BME280;51709;54.912;8.316;2024-02-26T01:31:35;100419.84;;;5.38;90.34
65131;BME280;51709;54.912;8.316;2024-02-26T01:36:56;100418.84;;;5.39;90.28
65131;BME280;51709;54.912;8.316;2024-02-26T01:42:17;100418.13;;;5.37;90.49
65131;BME280;51709;54.912;8.316;2024-02-26T01:47:37;100419.00;;;5.37;90.48
65131;BME280;51709;54.912;8.316;2024-02-26T01:52:58;100429.09;;;5.45;90.15
65131;BME280;51709;54.912;8.316;2024-02-26T01:58:18;100432.91;;;5.42;90.30
65131;BME280;51709;54.912;8.316;2024-02-26T02:03:39;100434.03;;;5.40;90.36
65131;BME280;51709;54.912;8.316;2024-02-26T02:09:02;100438.13;;;5.34;90.49
65131;BME280;51709;54.912;8.316;2024-02-26T02:14:27;100436.41;;;5.33;90.38
65131;BME280;51709;54.912;8.316;2024-02-26T02:19:47;100435.69;;;5.31;90.69
65131;BME280;51709;54.912;8.316;2024-02-26T02:25:08;100439.78;;;5.25;90.86
65131;BME280;51709;54.912;8.316;2024-02-26T02:30:29;100456.22;;;5.22;91.15
65131;BME280;51709;54.912;8.316;2024-02-26T02:35:51;100462.03;;;5.27;91.06
65131;BME280;51709;54.912;8.316;2024-02-26T02:41:14;100456.13;;;5.33;90.97
65131;BME280;51709;54.912;8.316;2024-02-26T02:46:35;100462.66;;;5.41;90.63
65131;BME280;51709;54.912;8.316;2024-02-26T02:51:55;100469.81;;;5.51;90.49
65131;BME280;51709;54.912;8.316;2024-02-26T02:57:18;100478.91;;;5.60;90.26
65131;BME280;51709;54.912;8.316;2024-02-26T03:02:38;100489.16;;;5.66;90.04
65131;BME280;51709;54.912;8.316;2024-02-26T03:07:59;100484.63;;;5.76;89.70
65131;BME280;51709;54.912;8.316;2024-02-26T03:13:20;100490.31;;;5.73;89.75
65131;BME280;51709;54.912;8.316;2024-02-26T03:18:41;100490.84;;;5.67;89.82
65131;BME280;51709;54.912;8.316;2024-02-26T03:24:02;100499.41;;;5.72;89.96
65131;BME280;51709;54.912;8.316;2024-02-26T03:29:23;100495.00;;;5.80;89.98
65131;BME280;51709;54.912;8.316;2024-02-26T03:34:43;100490.75;;;5.78;89.65
65131;BME280;51709;54.912;8.316;2024-02-26T03:40:04;100507.91;;;5.77;89.87
65131;BME280;51709;54.912;8.316;2024-02-26T03:45:25;100514.41;;;5.74;89.64
65131;BME280;51709;54.912;8.316;2024-02-26T03:50:46;100514.41;;;5.74;89.30
65131;BME280;51709;54.912;8.316;2024-02-26T03:56:07;100514.94;;;5.59;89.07
65131;BME280;51709;54.912;8.316;2024-02-26T04:01:28;100518.22;;;5.42;89.23
65131;BME280;51709;54.912;8.316;2024-02-26T04:06:49;100526.94;;;5.24;89.42
65131;BME280;51709;54.912;8.316;2024-02-26T04:12:09;100541.31;;;5.14;89.70
65131;BME280;51709;54.912;8.316;2024-02-26T04:17:30;100551.44;;;5.21;89.34
65131;BME280;51709;54.912;8.316;2024-02-26T04:22:50;100561.66;;;5.27;89.29
65131;BME280;51709;54.912;8.316;2024-02-26T04:28:11;100571.19;;;5.31;89.06
65131;BME280;51709;54.912;8.316;2024-02-26T04:33:35;100569.22;;;5.33;89.06
65131;BME280;51709;54.912;8.316;2024-02-26T04:38:56;100574.63;;;5.33;89.21
65131;BME280;51709;54.912;8.316;2024-02-26T04:44:17;100583.06;;;5.29;89.28
65131;BME280;51709;54.912;8.316;2024-02-26T04:49:37;100598.63;;;5.25;89.54
65131;BME280;51709;54.912;8.316;2024-02-26T04:54:58;100603.56;;;5.20;89.60
65131;BME280;51709;54.912;8.316;2024-02-26T05:00:20;100603.13;;;5.15;89.83
65131;BME280;51709;54.912;8.316;2024-02-26T05:05:42;100613.78;;;5.06;89.61
65131;BME280;51709;54.912;8.316;2024-02-26T05:11:03;100614.94;;;5.03;89.58
65131;BME280;51709;54.912;8.316;2024-02-26T05:16:24;100628.44;;;4.92;89.69
65131;BME280;51709;54.912;8.316;2024-02-26T05:21:47;100641.88;;;4.92;89.88
65131;BME280;51709;54.912;8.316;2024-02-26T05:27:10;100650.91;;;4.91;89.61
65131;BME280;51709;54.912;8.316;2024-02-26T05:32:30;100642.78;;;4.82;89.73
65131;BME280;51709;54.912;8.316;2024-02-26T05:37:51;100653.78;;;4.79;89.63
65131;BME280;51709;54.912;8.316;2024-02-26T05:43:12;100667.63;;;4.74;89.88
65131;BME280;51709;54.912;8.316;2024-02-26T05:48:35;100665.06;;;4.73;90.01
65131;BME280;51709;54.912;8.316;2024-02-26T05:53:56;100658.56;;;4.64;90.02
65131;BME280;51709;54.912;8.316;2024-02-26T05:59:18;100669.63;;;4.50;90.15
65131;BME280;51709;54.912;8.316;2024-02-26T06:04:38;100682.97;;;4.41;90.34
65131;BME280;51709;54.912;8.316;2024-02-26T06:09:59;100696.63;;;4.38;90.34
65131;BME280;51709;54.912;8.316;2024-02-26T06:15:19;100694.34;;;4.33;90.25
65131;BME280;51709;54.912;8.316;2024-02-26T06:20:40;100703.75;;;4.39;90.19
65131;BME280;51709;54.912;8.316;2024-02-26T06:26:01;100726.81;;;4.52;89.94
65131;BME280;51709;54.912;8.316;2024-02-26T06:31:23;100732.22;;;4.63;89.66
65131;BME280;51709;54.912;8.316;2024-02-26T06:36:43;100744.78;;;4.74;89.86
65131;BME280;51709;54.912;8.316;2024-02-26T06:42:04;100740.50;;;4.82;89.69
65131;BME280;51709;54.912;8.316;2024-02-26T06:47:25;100748.53;;;4.93;89.86
65131;BME280;51709;54.912;8.316;2024-02-26T06:52:46;100755.88;;;5.02;89.89
65131;BME280;51709;54.912;8.316;2024-02-26T06:58:08;100755.38;;;5.08;89.56
65131;BME280;51709;54.912;8.316;2024-02-26T07:03:28;100756.44;;;5.17;89.52
65131;BME280;51709;54.912;8.316;2024-02-26T07:08:50;100768.44;;;5.24;89.49
65131;BME280;51709;54.912;8.316;2024-02-26T07:14:12;100785.78;;;5.31;89.48
65131;BME280;51709;54.912;8.316;2024-02-26T07:19:32;100786.16;;;5.38;89.36
65131;BME280;51709;54.912;8.316;2024-02-26T07:24:53;100786.34;;;5.46;89.25
65131;BME280;51709;54.912;8.316;2024-02-26T07:30:14;100798.59;;;5.50;89.17
65131;BME280;51709;54.912;8.316;2024-02-26T07:35:36;100804.31;;;5.56;88.88
65131;BME280;51709;54.912;8.316;2024-02-26T07:40:59;100805.50;;;5.63;89.28
65131;BME280;51709;54.912;8.316;2024-02-26T07:46:23;100815.06;;;5.67;89.27
65131;BME280;51709;54.912;8.316;2024-02-26T07:51:43;100814.19;;;5.67;89.32
65131;BME280;51709;54.912;8.316;2024-02-26T07:57:04;100810.41;;;5.69;89.01
65131;BME280;51709;54.912;8.316;2024-02-26T08:02:25;100821.41;;;5.77;88.89
65131;BME280;51709;54.912;8.316;2024-02-26T08:07:46;100822.22;;;5.89;88.68
65131;BME280;51709;54.912;8.316;2024-02-26T08:13:08;100825.34;;;6.05;88.21
65131;BME280;51709;54.912;8.316;2024-02-26T08:18:28;100837.44;;;6.10;88.34
65131;BME280;51709;54.912;8.316;2024-02-26T08:23:49;100838.19;;;6.12;88.16
65131;BME280;51709;54.912;8.316;2024-02-26T08:29:10;100848.78;;;6.25;88.20
65131;BME280;51709;54.912;8.316;2024-02-26T08:34:30;100859.44;;;6.47;87.53
65131;BME280;51709;54.912;8.316;2024-02-26T08:39:51;100858.63;;;6.77;87.24
65131;BME280;51709;54.912;8.316;2024-02-26T08:45:12;100849.94;;;6.73;87.35
65131;BME280;51709;54.912;8.316;2024-02-26T08:50:35;100863.88;;;6.78;87.39
65131;BME280;51709;54.912;8.316;2024-02-26T08:55:56;100878.53;;;7.06;87.37
65131;BME280;51709;54.912;8.316;2024-02-26T09:01:16;100891.50;;;7.52;86.64
65131;BME280;51709;54.912;8.316;2024-02-26T09:06:37;100899.63;;;7.52;86.35
65131;BME280;51709;54.912;8.316;2024-02-26T09:11:57;100898.91;;;7.50;86.42
65131;BME280;51709;54.912;8.316;2024-02-26T09:17:19;100896.72;;;7.43;86.51
65131;BME280;51709;54.912;8.316;2024-02-26T09:22:41;100892.38;;;7.62;86.26
65131;BME280;51709;54.912;8.316;2024-02-26T09:28:03;100893.84;;;7.85;85.95
65131;BME280;51709;54.912;8.316;2024-02-26T09:33:24;100905.53;;;7.95;85.71
65131;BME280;51709;54.912;8.316;2024-02-26T09:38:45;100900.25;;;7.93;85.60
65131;BME280;51709;54.912;8.316;2024-02-26T09:44:19;100911.13;;;8.12;85.57
65131;BME280;51709;54.912;8.316;2024-02-26T09:49:43;100911.84;;;8.24;84.85
65131;BME280;51709;54.912;8.316;2024-02-26T09:55:05;100920.13;;;8.41;84.72
65131;BME280;51709;54.912;8.316;2024-02-26T10:00:27;100926.53;;;8.40;84.29
65131;BME280;51709;54.912;8.316;2024-02-26T10:05:53;100935.94;;;8.27;85.21
65131;BME280;51709;54.912;8.316;2024-02-26T10:11:16;100939.78;;;8.53;84.98
65131;BME280;51709;54.912;8.316;2024-02-26T10:16:37;100943.53;;;9.17;83.59
65131;BME280;51709;54.912;8.316;2024-02-26T10:22:00;100951.53;;;9.83;82.84
65131;BME280;51709;54.912;8.316;2024-02-26T10:27:21;100952.84;;;11.71;80.68
65131;BME280;51709;54.912;8.316;2024-02-26T10:32:41;100955.28;;;13.91;77.01
65131;BME280;51709;54.912;8.316;2024-02-26T10:38:02;100959.38;;;14.64;75.60
65131;BME280;51709;54.912;8.316;2024-02-26T10:43:23;100961.47;;;14.54;75.80
65131;BME280;51709;54.912;8.316;2024-02-26T10:48:53;100972.72;;;13.19;78.62
65131;BME280;51709;54.912;8.316;2024-02-26T10:54:16;100975.13;;;13.85;77.24
65131;BME280;51709;54.912;8.316;2024-02-26T10:59:38;100971.69;;;13.12;78.11
65131;BME280;51709;54.912;8.316;2024-02-26T11:05:02;100973.09;;;12.10;79.72
65131;BME280;51709;54.912;8.316;2024-02-26T11:10:23;100977.50;;;12.11;80.15
65131;BME280;51709;54.912;8.316;2024-02-26T11:15:48;100973.06;;;12.84;78.46
65131;BME280;51709;54.912;8.316;2024-02-26T11:21:13;100978.38;;;13.09;78.09
65131;BME280;51709;54.912;8.316;2024-02-26T11:26:40;100990.25;;;12.68;78.24
65131;BME280;51709;54.912;8.316;2024-02-26T11:32:03;100995.09;;;11.83;79.68
65131;BME280;51709;54.912;8.316;2024-02-26T11:37:24;101001.91;;;11.35;80.55
65131;BME280;51709;54.912;8.316;2024-02-26T11:42:45;101003.38;;;11.22;80.86
65131;BME280;51709;54.912;8.316;2024-02-26T11:48:12;101010.84;;;14.30;74.96
65131;BME280;51709;54.912;8.316;2024-02-26T11:53:33;101009.84;;;14.99;72.94
65131;BME280;51709;54.912;8.316;2024-02-26T11:59:04;101014.81;;;13.48;76.05
65131;BME280;51709;54.912;8.316;2024-02-26T12:04:30;101015.41;;;12.46;78.80
65131;BME280;51709;54.912;8.316;2024-02-26T12:10:21;101011.50;;;15.30;73.71
65131;BME280;51709;54.912;8.316;2024-02-26T12:15:45;101020.72;;;15.52;72.35
65131;BME280;51709;54.912;8.316;2024-02-26T12:21:06;101031.72;;;14.07;75.67
65131;BME280;51709;54.912;8.316;2024-02-26T12:26:27;101031.50;;;12.97;77.53
65131;BME280;51709;54.912;8.316;2024-02-26T12:31:47;101032.47;;;11.73;80.20
65131;BME280;51709;54.912;8.316;2024-02-26T12:37:08;101044.38;;;11.28;81.03
65131;BME280;51709;54.912;8.316;2024-02-26T12:42:32;101040.53;;;10.78;82.15
65131;BME280;51709;54.912;8.316;2024-02-26T12:47:54;101053.97;;;10.35;82.52
65131;BME280;51709;54.912;8.316;2024-02-26T12:53:14;101062.41;;;10.05;83.07
65131;BME280;51709;54.912;8.316;2024-02-26T12:58:36;101065.06;;;9.78;83.75
65131;BME280;51709;54.912;8.316;2024-02-26T13:03:58;101075.44;;;9.55;84.35
65131;BME280;51709;54.912;8.316;2024-02-26T13:09:21;101087.84;;;9.48;84.38
65131;BME280;51709;54.912;8.316;2024-02-26T13:14:42;101088.84;;;9.47;84.79
65131;BME280;51709;54.912;8.316;2024-02-26T13:20:03;101092.53;;;9.56;84.64
65131;BME280;51709;54.912;8.316;2024-02-26T13:25:25;101095.66;;;9.61;84.48
65131;BME280;51709;54.912;8.316;2024-02-26T13:30:57;101092.38;;;9.67;84.58
65131;BME280;51709;54.912;8.316;2024-02-26T13:36:18;101101.38;;;9.77;84.59
65131;BME280;51709;54.912;8.316;2024-02-26T13:41:39;101108.63;;;9.86;84.68
65131;BME280;51709;54.912;8.316;2024-02-26T13:47:01;101114.63;;;9.80;84.71
65131;BME280;51709;54.912;8.316;2024-02-26T13:52:22;101111.94;;;9.61;84.99
65131;BME280;51709;54.912;8.316;2024-02-26T13:57:43;101133.38;;;9.54;85.47
65131;BME280;51709;54.912;8.316;2024-02-26T14:03:04;101143.66;;;9.50;85.41
65131;BME280;51709;54.912;8.316;2024-02-26T14:08:24;101140.22;;;9.58;85.08
65131;BME280;51709;54.912;8.316;2024-02-26T14:13:45;101149.38;;;9.47;85.05
65131;BME280;51709;54.912;8.316;2024-02-26T14:19:08;101161.09;;;9.38;85.26
65131;BME280;51709;54.912;8.316;2024-02-26T14:24:31;101171.66;;;9.22;85.62
65131;BME280;51709;54.912;8.316;2024-02-26T14:29:53;101167.22;;;9.12;85.88
65131;BME280;51709;54.912;8.316;2024-02-26T14:35:16;101171.34;;;9.25;85.57
65131;BME280;51709;54.912;8.316;2024-02-26T14:40:37;101187.06;;;9.31;85.30
65131;BME280;51709;54.912;8.316;2024-02-26T14:45:58;101191.59;;;9.21;85.41
65131;BME280;51709;54.912;8.316;2024-02-26T14:51:19;101198.34;;;9.17;85.63
65131;BME280;51709;54.912;8.316;2024-02-26T14:56:40;101205.88;;;9.04;86.15
65131;BME280;51709;54.912;8.316;2024-02-26T15:02:01;101206.78;;;8.75;86.35
65131;BME280;51709;54.912;8.316;2024-02-26T15:07:21;101221.44;;;8.63;86.69
65131;BME280;51709;54.912;8.316;2024-02-26T15:12:42;101222.44;;;8.62;86.84
65131;BME280;51709;54.912;8.316;2024-02-26T15:18:02;101214.88;;;8.65;86.83
65131;BME280;51709;54.912;8.316;2024-02-26T15:23:23;101224.84;;;8.65;87.01
65131;BME280;51709;54.912;8.316;2024-02-26T15:28:43;101239.72;;;8.70;86.94
65131;BME280;51709;54.912;8.316;2024-02-26T15:34:04;101239.13;;;8.67;87.03
65131;BME280;51709;54.912;8.316;2024-02-26T15:39:25;101234.97;;;8.63;86.78
65131;BME280;51709;54.912;8.316;2024-02-26T15:44:46;101241.50;;;8.60;86.85
65131;BME280;51709;54.912;8.316;2024-02-26T15:50:07;101245.03;;;8.51;87.01
65131;BME280;51709;54.912;8.316;2024-02-26T15:55:28;101258.25;;;8.44;86.98
65131;BME280;51709;54.912;8.316;2024-02-26T16:00:48;101267.91;;;8.37;87.18
65131;BME280;51709;54.912;8.316;2024-02-26T16:06:20;101284.53;;;8.33;87.00
65131;BME280;51709;54.912;8.316;2024-02-26T16:11:42;101288.97;;;8.34;87.15
65131;BME280;51709;54.912;8.316;2024-02-26T16:17:10;101290.75;;;8.24;86.95
65131;BME280;51709;54.912;8.316;2024-02-26T16:22:33;101297.13;;;8.23;87.45
65131;BME280;51709;54.912;8.316;2024-02-26T16:27:54;101310.94;;;8.20;87.14
65131;BME280;51709;54.912;8.316;2024-02-26T16:33:15;101318.06;;;8.21;87.34
65131;BME280;51709;54.912;8.316;2024-02-26T16:38:36;101327.31;;;8.18;87.43
65131;BME280;51709;54.912;8.316;2024-02-26T16:43:58;101321.28;;;8.15;87.53
65131;BME280;51709;54.912;8.316;2024-02-26T16:49:19;101336.44;;;8.06;87.58
65131;BME280;51709;54.912;8.316;2024-02-26T16:54:39;101346.69;;;8.03;87.58
65131;BME280;51709;54.912;8.316;2024-02-26T16:59:59;101353.13;;;7.91;87.50
65131;BME280;51709;54.912;8.316;2024-02-26T17:05:20;101355.59;;;7.83;87.65
65131;BME280;51709;54.912;8.316;2024-02-26T17:10:41;101365.50;;;7.73;87.86
65131;BME280;51709;54.912;8.316;2024-02-26T17:16:01;101373.63;;;7.62;87.76
65131;BME280;51709;54.912;8.316;2024-02-26T17:21:25;101385.47;;;7.50;87.65
65131;BME280;51709;54.912;8.316;2024-02-26T17:26:47;101392.09;;;7.46;87.86
65131;BME280;51709;54.912;8.316;2024-02-26T17:32:08;101397.63;;;7.44;87.82
65131;BME280;51709;54.912;8.316;2024-02-26T17:37:32;101406.09;;;7.39;87.82
65131;BME280;51709;54.912;8.316;2024-02-26T17:42:54;101408.19;;;7.47;88.38
65131;BME280;51709;54.912;8.316;2024-02-26T17:48:15;101419.88;;;7.48;88.62
65131;BME280;51709;54.912;8.316;2024-02-26T17:53:36;101427.63;;;7.41;87.98
65131;BME280;51709;54.912;8.316;2024-02-26T17:58:57;101437.78;;;7.37;87.91
65131;BME280;51709;54.912;8.316;2024-02-26T18:04:17;101439.03;;;7.33;88.27
65131;BME280;51709;54.912;8.316;2024-02-26T18:09:38;101450.34;;;7.27;87.87
65131;BME280;51709;54.912;8.316;2024-02-26T18:14:59;101450.59;;;7.13;88.07
65131;BME280;51709;54.912;8.316;2024-02-26T18:20:19;101458.06;;;6.99;88.23
65131;BME280;51709;54.912;8.316;2024-02-26T18:25:40;101468.22;;;6.84;88.46
65131;BME280;51709;54.912;8.316;2024-02-26T18:31:01;101478.84;;;6.75;88.36
65131;BME280;51709;54.912;8.316;2024-02-26T18:36:22;101479.56;;;6.66;88.57
65131;BME280;51709;54.912;8.316;2024-02-26T18:41:45;101492.81;;;6.58;88.57
65131;BME280;51709;54.912;8.316;2024-02-26T18:47:06;101501.47;;;6.50;88.71
65131;BME280;51709;54.912;8.316;2024-02-26T18:52:27;101507.56;;;6.41;88.60
65131;BME280;51709;54.912;8.316;2024-02-26T18:57:47;101512.69;;;6.33;88.78
65131;BME280;51709;54.912;8.316;2024-02-26T19:03:07;101512.78;;;6.31;89.47
65131;BME280;51709;54.912;8.316;2024-02-26T19:08:28;101522.75;;;6.31;89.68
65131;BME280;51709;54.912;8.316;2024-02-26T19:13:49;101529.34;;;6.27;89.53
65131;BME280;51709;54.912;8.316;2024-02-26T19:19:09;101533.00;;;6.26;89.87
65131;BME280;51709;54.912;8.316;2024-02-26T19:24:32;101535.69;;;6.26;89.50
65131;BME280;51709;54.912;8.316;2024-02-26T19:29:52;101538.97;;;6.18;89.65
65131;BME280;51709;54.912;8.316;2024-02-26T19:35:13;101549.34;;;6.12;89.44
65131;BME280;51709;54.912;8.316;2024-02-26T19:40:34;101561.44;;;6.06;89.50
65131;BME280;51709;54.912;8.316;2024-02-26T19:45:54;101566.19;;;6.03;89.55
65131;BME280;51709;54.912;8.316;2024-02-26T19:51:15;101559.34;;;5.99;89.30
65131;BME280;51709;54.912;8.316;2024-02-26T19:56:37;101570.31;;;5.96;89.58
65131;BME280;51709;54.912;8.316;2024-02-26T20:01:58;101585.00;;;5.92;89.03
65131;BME280;51709;54.912;8.316;2024-02-26T20:07:19;101589.09;;;5.85;89.30
65131;BME280;51709;54.912;8.316;2024-02-26T20:12:40;101594.69;;;5.82;89.10
65131;BME280;51709;54.912;8.316;2024-02-26T20:18:01;101585.97;;;5.78;89.34
65131;BME280;51709;54.912;8.316;2024-02-26T20:23:23;101599.03;;;5.72;89.32
65131;BME280;51709;54.912;8.316;2024-02-26T20:28:43;101599.44;;;5.66;89.01
65131;BME280;51709;54.912;8.316;2024-02-26T20:34:04;101605.50;;;5.57;89.18
65131;BME280;51709;54.912;8.316;2024-02-26T20:39:26;101613.28;;;5.49;89.13
65131;BME280;51709;54.912;8.316;2024-02-26T20:44:47;101615.63;;;5.41;89.29
65131;BME280;51709;54.912;8.316;2024-02-26T20:50:08;101616.03;;;5.34;89.08
65131;BME280;51709;54.912;8.316;2024-02-26T20:55:29;101611.84;;;5.30;89.22
65131;BME280;51709;54.912;8.316;2024-02-26T21:00:50;101622.94;;;5.26;88.98
65131;BME280;51709;54.912;8.316;2024-02-26T21:06:10;101634.97;;;5.20;89.11
65131;BME280;51709;54.912;8.316;2024-02-26T21:11:33;101638.66;;;5.19;88.85
65131;BME280;51709;54.912;8.316;2024-02-26T21:16:54;101633.47;;;5.16;89.31
65131;BME280;51709;54.912;8.316;2024-02-26T21:22:15;101638.66;;;5.19;89.12
65131;BME280;51709;54.912;8.316;2024-02-26T21:27:36;101651.91;;;5.22;89.05
65131;BME280;51709;54.912;8.316;2024-02-26T21:32:57;101654.59;;;5.22;88.88
65131;BME280;51709;54.912;8.316;2024-02-26T21:38:18;101657.19;;;5.24;88.72
65131;BME280;51709;54.912;8.316;2024-02-26T21:43:45;101667.09;;;5.23;88.84
65131;BME280;51709;54.912;8.316;2024-02-26T21:49:10;101670.97;;;5.19;88.88
65131;BME280;51709;54.912;8.316;2024-02-26T21:54:34;101691.22;;;5.12;88.70
65131;BME280;51709;54.912;8.316;2024-02-26T21:59:55;101687.53;;;5.13;88.57
65131;BME280;51709;54.912;8.316;2024-02-26T22:05:16;101693.31;;;5.07;88.48
65131;BME280;51709;54.912;8.316;2024-02-26T22:10:37;101702.38;;;5.06;88.74
65131;BME280;51709;54.912;8.316;2024-02-26T22:15:59;101715.84;;;5.06;88.68
65131;BME280;51709;54.912;8.316;2024-02-26T22:21:19;101720.47;;;5.04;88.29
65131;BME280;51709;54.912;8.316;2024-02-26T22:26:40;101725.09;;;5.02;88.53
65131;BME280;51709;54.912;8.316;2024-02-26T22:32:01;101725.97;;;5.03;88.51
65131;BME280;51709;54.912;8.316;2024-02-26T22:37:22;101729.72;;;5.00;88.34
65131;BME280;51709;54.912;8.316;2024-02-26T22:42:42;101727.00;;;5.00;88.54
65131;BME280;51709;54.912;8.316;2024-02-26T22:48:04;101722.22;;;5.05;88.42
65131;BME280;51709;54.912;8.316;2024-02-26T22:53:25;101724.13;;;5.03;88.29
65131;BME280;51709;54.912;8.316;2024-02-26T22:58:46;101733.59;;;4.96;88.41
65131;BME280;51709;54.912;8.316;2024-02-26T23:04:07;101724.75;;;4.94;88.20
65131;BME280;51709;54.912;8.316;2024-02-26T23:09:28;101733.00;;;4.91;88.38
65131;BME280;51709;54.912;8.316;2024-02-26T23:14:49;101736.00;;;4.87;88.08
65131;BME280;51709;54.912;8.316;2024-02-26T23:20:10;101730.34;;;4.77;88.39
65131;BME280;51709;54.912;8.316;2024-02-26T23:25:32;101745.94;;;4.72;88.44
65131;BME280;51709;54.912;8.316;2024-02-26T23:30:53;101742.47;;;4.70;88.11
65131;BME280;51709;54.912;8.316;2024-02-26T23:36:14;101748.91;;;4.68;88.31
65131;BME280;51709;54.912;8.316;2024-02-26T23:41:35;101754.59;;;4.63;88.15
65131;BME280;51709;54.912;8.316;2024-02-26T23:46:55;101757.50;;;4.60;88.04
65131;BME280;51709;54.912;8.316;2024-02-26T23:52:16;101757.69;;;4.57;88.07
65131;BME280;51709;54.912;8.316;2024-02-26T23:57:36;101768.66;;;4.54;88.32
